Terminal Aerodrome Forecast
Issued by NWS

Home | Current Version | Previous Version | Text Only | Print | Product List | Glossary On
Versions: 1 2 3 4 5 6 7 8 9 10 11 12 13 14 15 16 17
000
FTUS41 KPBZ 240500
TAFLBE
TAF
KLBE 240520Z 2406/2506 VRB03KT P6SM BKN015 OVC050
     FM240800 34006KT P6SM OVC025
     FM241500 36008KT P6SM BKN035
     FM242200 35005KT P6SM SCT040
     FM250400 VRB02KT P6SM SKC=

USA.gov is the U.S. government's official web portal to all federal, state and local government web resources and services.